Mandoudi — SV3198 — position and weather

sailwx.info

Track history (hours):
 
Tides and Currents Weather Stations Pressure Air Temp Water Temp Dewpoint Dewpoint Depression Visibility Wind Speed Wind Dir Waves Ship Positions

Mandoudi

Last reported at 2014-Jul-24 18:33 UTC. Time now 2014-Jul-24 19:19 UTC.
Position N 37°58' E 023°37'.

Length 60 m; draft 4.6 m.

Type: Ship (hazmat cat A). MMSI: 237470200.

Date/timePositionNaut miles runAvg speedWind from/ knotsBaromVisibWave heightAir tempDewpointWater temp
2014-Jul-24 18:33N 37°58' E 023°37'0 0.0
2014-Jul-24 17:33N 37°58' E 023°37'0 0.0
2014-Jul-24 16:33N 37°58' E 023°37'0 0.0
2014-Jul-24 15:33N 37°58' E 023°37'5 4.7
2014-Jul-24 14:33N 37°54' E 023°33'0 0.0
2014-Jul-24 13:33N 37°54' E 023°33'1 0.8
2014-Jul-24 12:33N 37°55' E 023°33'5 4.7
2014-Jul-24 11:33N 37°59' E 023°33'3 1.9
2014-Jul-24 10:15N 38°01' E 023°35'0 0.0
2014-Jul-24 09:33N 38°01' E 023°35'0 0.0
2014-Jul-24 08:27N 38°01' E 023°35'0 0.0
2014-Jul-24 07:32N 38°01' E 023°35'0 0.0
2014-Jul-24 06:23N 38°01' E 023°35'0 0.1
2014-Jul-24 05:29N 38°01' E 023°35'0 0.0
2014-Jul-24 04:28N 38°01' E 023°35'0 0.0
2014-Jul-24 03:30N 38°01' E 023°35'0 0.0
2014-Jul-24 02:33N 38°01' E 023°35'0 0.0
2014-Jul-24 01:33N 38°01' E 023°35'0 0.0
2014-Jul-24 00:24N 38°01' E 023°35'0 0.0
2014-Jul-23 23:33N 38°01' E 023°35'0 0.0
2014-Jul-23 22:24N 38°01' E 023°35'1 1.1
2014-Jul-23 21:32N 38°02' E 023°36'0 0.0
2014-Jul-23 20:32N 38°02' E 023°36'0 0.0
2014-Jul-23 19:25N 38°02' E 023°36'0 0.0
2014-Jul-23 18:29N 38°02' E 023°36'0 0.0
2014-Jul-23 17:33N 38°02' E 023°36'0 0.1
2014-Jul-23 16:33N 38°02' E 023°36'1 0.8
2014-Jul-23 15:29N 38°01' E 023°35'0 0.0
2014-Jul-23 14:29N 38°01' E 023°35'0 0.1
2014-Jul-23 13:27N 38°01' E 023°35'0 0.0
2014-Jul-23 12:27N 38°01' E 023°35'0 0.0
2014-Jul-23 11:33N 38°01' E 023°35'4 2.2
2014-Jul-23 09:33N 37°57' E 023°35'3 2.8
2014-Jul-23 08:33N 37°56' E 023°38'0 0.0
2014-Jul-23 07:33N 37°56' E 023°38'0 0.0
2014-Jul-23 06:33N 37°56' E 023°38'0 0.0
2014-Jul-23 05:33N 37°56' E 023°38'1 0.3
2014-Jul-23 00:34N 37°58' E 023°37'0 0.0
2014-Jul-22 23:33N 37°58' E 023°37'0 0.0
2014-Jul-22 22:33N 37°58' E 023°37'0 0.0
2014-Jul-22 21:33N 37°58' E 023°37'0 0.0
2014-Jul-22 20:33N 37°58' E 023°37'0 0.0
2014-Jul-22 19:33N 37°58' E 023°37'0 0.0
2014-Jul-22 18:33N 37°58' E 023°37'0 0.0
2014-Jul-22 17:33N 37°58' E 023°37'0 0.0
2014-Jul-22 16:33N 37°58' E 023°37'0 0.0
2014-Jul-22 15:33N 37°58' E 023°37'0 0.0
2014-Jul-22 14:33N 37°58' E 023°37'0 0.0
2014-Jul-22 13:33N 37°58' E 023°37'0 0.0
2014-Jul-22 12:33N 37°58' E 023°37'0 0.0
2014-Jul-22 11:33N 37°58' E 023°37'0 0.0
2014-Jul-22 10:33N 37°58' E 023°37'0 0.0
2014-Jul-22 09:33N 37°58' E 023°37'0 0.0
2014-Jul-22 08:33N 37°58' E 023°37'0 0.0
2014-Jul-22 07:33N 37°58' E 023°37'0 0.0
2014-Jul-22 06:33N 37°58' E 023°37'0 0.0
2014-Jul-22 05:33N 37°58' E 023°37'4 3.5
2014-Jul-22 04:33N 37°59' E 023°33'3 3.0
2014-Jul-22 03:32N 38°02' E 023°35'0 0.0
2014-Jul-22 02:33N 38°02' E 023°35'0 0.0
2014-Jul-22 01:32N 38°02' E 023°35'1 0.6
2014-Jul-22 00:33N 38°02' E 023°36'0 0.0
2014-Jul-21 23:33N 38°02' E 023°36'0 0.0
2014-Jul-21 22:26N 38°02' E 023°36'0 0.0
2014-Jul-21 21:33N 38°02' E 023°36'0 0.0
2014-Jul-21 20:32N 38°02' E 023°36'0 1.7
2014-Jul-21 20:17N 38°02' E 023°35'0 0.2
2014-Jul-21 19:21N 38°02' E 023°35'0 0.0
2014-Jul-21 18:31N 38°02' E 023°35'0 0.0
2014-Jul-21 17:29N 38°02' E 023°35'0 0.0
2014-Jul-21 16:33N 38°02' E 023°35'0 0.0
2014-Jul-21 15:32N 38°02' E 023°35'4 3.9
2014-Jul-21 14:33N 37°58' E 023°33'5 4.5
2014-Jul-21 13:33N 37°57' E 023°38'0 0.0
2014-Jul-21 12:33N 37°57' E 023°38'0 0.1
2014-Jul-21 11:33N 37°57' E 023°38'0 0.0
2014-Jul-21 10:33N 37°57' E 023°38'0 0.0
2014-Jul-21 09:33N 37°57' E 023°38'0 0.0
2014-Jul-21 08:29N 37°57' E 023°38'0 0.1
2014-Jul-21 07:33N 37°57' E 023°38'0 0.1
2014-Jul-21 06:33N 37°57' E 023°38'1 0.0
2014-Jul-19 13:33N 37°58' E 023°37'0 0.0
2014-Jul-19 12:33N 37°58' E 023°37'0 0.0
2014-Jul-19 11:33N 37°58' E 023°37'0 0.0
2014-Jul-19 10:33N 37°58' E 023°37'0 0.0
2014-Jul-19 09:33N 37°58' E 023°37'0 0.0
2014-Jul-19 08:33N 37°58' E 023°37'0 0.0
2014-Jul-19 07:34N 37°58' E 023°37'0 0.0
2014-Jul-19 06:33N 37°58' E 023°37'0 0.0
2014-Jul-19 05:33N 37°58' E 023°37'2 1.5
2014-Jul-19 04:33N 37°57' E 023°38'0 0.0
2014-Jul-19 03:33N 37°57' E 023°38'0 0.0
2014-Jul-19 02:33N 37°57' E 023°38'2 1.6
2014-Jul-19 01:33N 37°58' E 023°37'0 0.0
2014-Jul-19 00:34N 37°58' E 023°37'0 0.0
2014-Jul-18 23:33N 37°58' E 023°37'0 0.0
2014-Jul-18 22:33N 37°58' E 023°37'0 0.0
2014-Jul-18 21:33N 37°58' E 023°37'0 0.0
2014-Jul-18 20:34N 37°58' E 023°37'0 0.0
2014-Jul-18 19:33N 37°58' E 023°37'0 0.0
2014-Jul-18 18:33N 37°58' E 023°37'0 0.0
2014-Jul-18 17:33N 37°58' E 023°37'0 0.0
2014-Jul-18 16:33N 37°58' E 023°37'0 0.1
2014-Jul-18 15:33N 37°57' E 023°37'5 5.0
2014-Jul-18 14:33N 38°01' E 023°32'1 0.9
2014-Jul-18 13:26N 38°02' E 023°32'1 0.7
2014-Jul-18 12:33N 38°01' E 023°32'2 1.9
2014-Jul-18 11:33N 37°60' E 023°33'5 5.4
2014-Jul-18 10:33N 37°57' E 023°38'0 0.0
2014-Jul-18 09:33N 37°57' E 023°38'0 0.1
2014-Jul-18 06:23N 37°56' E 023°38'1 0.2
2014-Jul-18 00:33N 37°58' E 023°37'0 0.0
2014-Jul-17 23:33N 37°58' E 023°37'0 0.0
2014-Jul-17 22:33N 37°58' E 023°37'0 0.0
2014-Jul-17 21:34N 37°58' E 023°37'0 0.0
2014-Jul-17 20:33N 37°58' E 023°37'0 0.0
2014-Jul-17 19:33N 37°58' E 023°37'0 0.0
2014-Jul-17 18:33N 37°58' E 023°37'0 0.0
2014-Jul-17 17:33N 37°58' E 023°37'0 0.0
2014-Jul-17 16:33N 37°58' E 023°37'0 0.0
2014-Jul-17 15:33N 37°58' E 023°37'0 0.0
2014-Jul-17 14:33N 37°58' E 023°37'0 0.0
2014-Jul-17 13:33N 37°58' E 023°37'2 2.2
2014-Jul-17 12:33N 37°57' E 023°34'6 5.4
2014-Jul-17 11:33N 38°02' E 023°31'0 0.0
2014-Jul-17 10:11N 38°02' E 023°31'0 0.0
2014-Jul-17 09:07N 38°02' E 023°31'0 0.0
2014-Jul-17 08:33N 38°02' E 023°31'0 0.0
2014-Jul-17 07:31N 38°02' E 023°31'0 0.0
2014-Jul-17 06:26N 38°02' E 023°31'4 5.0
2014-Jul-17 05:33N 37°58' E 023°33'5 4.6
2014-Jul-17 04:33N 37°57' E 023°38'0 0.0
2014-Jul-17 03:33N 37°57' E 023°38'0 0.0
2014-Jul-17 02:33N 37°57' E 023°38'2 1.5
2014-Jul-17 01:33N 37°58' E 023°37'0 0.0
2014-Jul-17 00:33N 37°58' E 023°37'0 0.0
2014-Jul-16 23:33N 37°58' E 023°37'0 0.0
2014-Jul-16 22:33N 37°58' E 023°37'0 0.0
2014-Jul-16 21:33N 37°58' E 023°37'0 0.0
2014-Jul-16 20:33N 37°58' E 023°37'0 0.0
2014-Jul-16 19:33N 37°58' E 023°37'0 0.0
2014-Jul-16 18:33N 37°58' E 023°37'0 0.0
2014-Jul-16 17:33N 37°58' E 023°37'0 0.0
2014-Jul-16 16:33N 37°58' E 023°37'0 0.0
2014-Jul-16 15:33N 37°58' E 023°37'0 0.0
2014-Jul-16 14:33N 37°58' E 023°37'0 0.0
2014-Jul-16 13:33N 37°58' E 023°37'0 0.0
2014-Jul-16 12:33N 37°58' E 023°37'0 0.0
2014-Jul-16 11:33N 37°58' E 023°37'0 0.0
2014-Jul-16 10:33N 37°58' E 023°37'1 1.4
2014-Jul-16 09:33N 37°56' E 023°38'0 0.0
2014-Jul-16 08:33N 37°56' E 023°38'0 0.0
2014-Jul-16 07:33N 37°56' E 023°38'0 0.0
2014-Jul-16 06:33N 37°56' E 023°38'1 1.4
2014-Jul-16 05:34N 37°58' E 023°37'0 0.1
2014-Jul-16 04:33N 37°58' E 023°37'0 0.0
2014-Jul-16 03:33N 37°58' E 023°37'0 0.0
2014-Jul-16 02:33N 37°58' E 023°37'0 0.0
2014-Jul-16 01:33N 37°58' E 023°37'0 0.0
2014-Jul-16 00:33N 37°58' E 023°37'0 0.0
2014-Jul-15 23:32N 37°58' E 023°37'0 0.0
2014-Jul-15 22:33N 37°58' E 023°37'0 0.0
2014-Jul-15 21:34N 37°58' E 023°37'0 0.0
2014-Jul-15 20:33N 37°58' E 023°37'0 0.0
2014-Jul-15 19:33N 37°58' E 023°37'0 0.0
2014-Jul-15 18:33N 37°58' E 023°37'0 0.0
2014-Jul-15 17:34N 37°58' E 023°37'0 0.0
2014-Jul-15 16:33N 37°58' E 023°37'0 0.0
2014-Jul-15 15:33N 37°58' E 023°37'0 0.0
2014-Jul-15 14:33N 37°58' E 023°37'0 0.0
2014-Jul-15 13:33N 37°58' E 023°37'0 0.0
2014-Jul-15 12:33N 37°58' E 023°37'1 0.6
2014-Jul-15 11:33N 37°57' E 023°36'6 6.1
2014-Jul-15 10:33N 38°02' E 023°31'0 0.2
2014-Jul-15 09:33N 38°02' E 023°31'0 0.0
2014-Jul-15 08:33N 38°02' E 023°31'0 0.0
2014-Jul-15 07:33N 38°02' E 023°31'0 0.0
2014-Jul-15 06:33N 38°02' E 023°31'0 0.0
2014-Jul-15 05:33N 38°02' E 023°31'1 0.8
2014-Jul-15 04:33N 38°01' E 023°31'1 1.1
2014-Jul-15 03:33N 38°01' E 023°32'4 3.9
2014-Jul-15 02:33N 37°57' E 023°35'2 1.7
2014-Jul-15 01:33N 37°58' E 023°37'0 0.0
2014-Jul-15 00:33N 37°58' E 023°37'0 0.0
2014-Jul-14 23:33N 37°58' E 023°37'0 0.0
2014-Jul-14 22:33N 37°58' E 023°37'0 0.0
2014-Jul-14 21:33N 37°58' E 023°37'0 0.0
2014-Jul-14 20:33N 37°58' E 023°37'0 0.0
2014-Jul-14 19:33N 37°58' E 023°37'0 0.0
2014-Jul-14 18:34N 37°58' E 023°37'  
Track history (hours):
 
Tides and Currents Weather Stations Pressure Air Temp Water Temp Dewpoint Dewpoint Depression Visibility Wind Speed Wind Dir Waves Ship Positions

Mandoudi

Last reported at 2014-Jul-24 18:33 UTC. Time now 2014-Jul-24 19:19 UTC.
Position N 37°58' E 023°37'.

Length 60 m; draft 4.6 m.

Type: Ship (hazmat cat A). MMSI: 237470200.

Date/timePositionNaut miles runAvg speedWind from/ knotsBaromVisibWave heightAir tempDewpointWater temp
2014-Jul-24 18:33N 37°58' E 023°37'0 0.0
2014-Jul-24 17:33N 37°58' E 023°37'0 0.0
2014-Jul-24 16:33N 37°58' E 023°37'0 0.0
2014-Jul-24 15:33N 37°58' E 023°37'5 4.7
2014-Jul-24 14:33N 37°54' E 023°33'0 0.0
2014-Jul-24 13:33N 37°54' E 023°33'1 0.8
2014-Jul-24 12:33N 37°55' E 023°33'5 4.7
2014-Jul-24 11:33N 37°59' E 023°33'3 1.9
2014-Jul-24 10:15N 38°01' E 023°35'0 0.0
2014-Jul-24 09:33N 38°01' E 023°35'0 0.0
2014-Jul-24 08:27N 38°01' E 023°35'0 0.0
2014-Jul-24 07:32N 38°01' E 023°35'0 0.0
2014-Jul-24 06:23N 38°01' E 023°35'0 0.1
2014-Jul-24 05:29N 38°01' E 023°35'0 0.0
2014-Jul-24 04:28N 38°01' E 023°35'0 0.0
2014-Jul-24 03:30N 38°01' E 023°35'0 0.0
2014-Jul-24 02:33N 38°01' E 023°35'0 0.0
2014-Jul-24 01:33N 38°01' E 023°35'0 0.0
2014-Jul-24 00:24N 38°01' E 023°35'0 0.0
2014-Jul-23 23:33N 38°01' E 023°35'0 0.0
2014-Jul-23 22:24N 38°01' E 023°35'1 1.1
2014-Jul-23 21:32N 38°02' E 023°36'0 0.0
2014-Jul-23 20:32N 38°02' E 023°36'0 0.0
2014-Jul-23 19:25N 38°02' E 023°36'0 0.0
2014-Jul-23 18:29N 38°02' E 023°36'0 0.0
2014-Jul-23 17:33N 38°02' E 023°36'0 0.1
2014-Jul-23 16:33N 38°02' E 023°36'1 0.8
2014-Jul-23 15:29N 38°01' E 023°35'0 0.0
2014-Jul-23 14:29N 38°01' E 023°35'0 0.1
2014-Jul-23 13:27N 38°01' E 023°35'0 0.0
2014-Jul-23 12:27N 38°01' E 023°35'0 0.0
2014-Jul-23 11:33N 38°01' E 023°35'4 2.2
2014-Jul-23 09:33N 37°57' E 023°35'3 2.8
2014-Jul-23 08:33N 37°56' E 023°38'0 0.0
2014-Jul-23 07:33N 37°56' E 023°38'0 0.0
2014-Jul-23 06:33N 37°56' E 023°38'0 0.0
2014-Jul-23 05:33N 37°56' E 023°38'1 0.3
2014-Jul-23 00:34N 37°58' E 023°37'0 0.0
2014-Jul-22 23:33N 37°58' E 023°37'0 0.0
2014-Jul-22 22:33N 37°58' E 023°37'0 0.0
2014-Jul-22 21:33N 37°58' E 023°37'0 0.0
2014-Jul-22 20:33N 37°58' E 023°37'0 0.0
2014-Jul-22 19:33N 37°58' E 023°37'0 0.0
2014-Jul-22 18:33N 37°58' E 023°37'0 0.0
2014-Jul-22 17:33N 37°58' E 023°37'0 0.0
2014-Jul-22 16:33N 37°58' E 023°37'0 0.0
2014-Jul-22 15:33N 37°58' E 023°37'0 0.0
2014-Jul-22 14:33N 37°58' E 023°37'0 0.0
2014-Jul-22 13:33N 37°58' E 023°37'0 0.0
2014-Jul-22 12:33N 37°58' E 023°37'0 0.0
2014-Jul-22 11:33N 37°58' E 023°37'0 0.0
2014-Jul-22 10:33N 37°58' E 023°37'0 0.0
2014-Jul-22 09:33N 37°58' E 023°37'0 0.0
2014-Jul-22 08:33N 37°58' E 023°37'0 0.0
2014-Jul-22 07:33N 37°58' E 023°37'0 0.0
2014-Jul-22 06:33N 37°58' E 023°37'0 0.0
2014-Jul-22 05:33N 37°58' E 023°37'4 3.5
2014-Jul-22 04:33N 37°59' E 023°33'3 3.0
2014-Jul-22 03:32N 38°02' E 023°35'0 0.0
2014-Jul-22 02:33N 38°02' E 023°35'0 0.0
2014-Jul-22 01:32N 38°02' E 023°35'1 0.6
2014-Jul-22 00:33N 38°02' E 023°36'0 0.0
2014-Jul-21 23:33N 38°02' E 023°36'0 0.0
2014-Jul-21 22:26N 38°02' E 023°36'0 0.0
2014-Jul-21 21:33N 38°02' E 023°36'0 0.0
2014-Jul-21 20:32N 38°02' E 023°36'0 1.7
2014-Jul-21 20:17N 38°02' E 023°35'0 0.2
2014-Jul-21 19:21N 38°02' E 023°35'0 0.0
2014-Jul-21 18:31N 38°02' E 023°35'0 0.0
2014-Jul-21 17:29N 38°02' E 023°35'0 0.0
2014-Jul-21 16:33N 38°02' E 023°35'0 0.0
2014-Jul-21 15:32N 38°02' E 023°35'4 3.9
2014-Jul-21 14:33N 37°58' E 023°33'5 4.5
2014-Jul-21 13:33N 37°57' E 023°38'0 0.0
2014-Jul-21 12:33N 37°57' E 023°38'0 0.1
2014-Jul-21 11:33N 37°57' E 023°38'0 0.0
2014-Jul-21 10:33N 37°57' E 023°38'0 0.0
2014-Jul-21 09:33N 37°57' E 023°38'0 0.0
2014-Jul-21 08:29N 37°57' E 023°38'0 0.1
2014-Jul-21 07:33N 37°57' E 023°38'0 0.1
2014-Jul-21 06:33N 37°57' E 023°38'1 0.0
2014-Jul-19 13:33N 37°58' E 023°37'0 0.0
2014-Jul-19 12:33N 37°58' E 023°37'0 0.0
2014-Jul-19 11:33N 37°58' E 023°37'0 0.0
2014-Jul-19 10:33N 37°58' E 023°37'0 0.0
2014-Jul-19 09:33N 37°58' E 023°37'0 0.0
2014-Jul-19 08:33N 37°58' E 023°37'0 0.0
2014-Jul-19 07:34N 37°58' E 023°37'0 0.0
2014-Jul-19 06:33N 37°58' E 023°37'0 0.0
2014-Jul-19 05:33N 37°58' E 023°37'2 1.5
2014-Jul-19 04:33N 37°57' E 023°38'0 0.0
2014-Jul-19 03:33N 37°57' E 023°38'0 0.0
2014-Jul-19 02:33N 37°57' E 023°38'2 1.6
2014-Jul-19 01:33N 37°58' E 023°37'0 0.0
2014-Jul-19 00:34N 37°58' E 023°37'0 0.0
2014-Jul-18 23:33N 37°58' E 023°37'0 0.0
2014-Jul-18 22:33N 37°58' E 023°37'0 0.0
2014-Jul-18 21:33N 37°58' E 023°37'0 0.0
2014-Jul-18 20:34N 37°58' E 023°37'0 0.0
2014-Jul-18 19:33N 37°58' E 023°37'0 0.0
2014-Jul-18 18:33N 37°58' E 023°37'0 0.0
2014-Jul-18 17:33N 37°58' E 023°37'0 0.0
2014-Jul-18 16:33N 37°58' E 023°37'0 0.1
2014-Jul-18 15:33N 37°57' E 023°37'5 5.0
2014-Jul-18 14:33N 38°01' E 023°32'1 0.9
2014-Jul-18 13:26N 38°02' E 023°32'1 0.7
2014-Jul-18 12:33N 38°01' E 023°32'2 1.9
2014-Jul-18 11:33N 37°60' E 023°33'5 5.4
2014-Jul-18 10:33N 37°57' E 023°38'0 0.0
2014-Jul-18 09:33N 37°57' E 023°38'0 0.1
2014-Jul-18 06:23N 37°56' E 023°38'1 0.2
2014-Jul-18 00:33N 37°58' E 023°37'0 0.0
2014-Jul-17 23:33N 37°58' E 023°37'0 0.0
2014-Jul-17 22:33N 37°58' E 023°37'0 0.0
2014-Jul-17 21:34N 37°58' E 023°37'0 0.0
2014-Jul-17 20:33N 37°58' E 023°37'0 0.0
2014-Jul-17 19:33N 37°58' E 023°37'0 0.0
2014-Jul-17 18:33N 37°58' E 023°37'0 0.0
2014-Jul-17 17:33N 37°58' E 023°37'0 0.0
2014-Jul-17 16:33N 37°58' E 023°37'0 0.0
2014-Jul-17 15:33N 37°58' E 023°37'0 0.0
2014-Jul-17 14:33N 37°58' E 023°37'0 0.0
2014-Jul-17 13:33N 37°58' E 023°37'2 2.2
2014-Jul-17 12:33N 37°57' E 023°34'6 5.4
2014-Jul-17 11:33N 38°02' E 023°31'0 0.0
2014-Jul-17 10:11N 38°02' E 023°31'0 0.0
2014-Jul-17 09:07N 38°02' E 023°31'0 0.0
2014-Jul-17 08:33N 38°02' E 023°31'0 0.0
2014-Jul-17 07:31N 38°02' E 023°31'0 0.0
2014-Jul-17 06:26N 38°02' E 023°31'4 5.0
2014-Jul-17 05:33N 37°58' E 023°33'5 4.6
2014-Jul-17 04:33N 37°57' E 023°38'0 0.0
2014-Jul-17 03:33N 37°57' E 023°38'0 0.0
2014-Jul-17 02:33N 37°57' E 023°38'2 1.5
2014-Jul-17 01:33N 37°58' E 023°37'0 0.0
2014-Jul-17 00:33N 37°58' E 023°37'0 0.0
2014-Jul-16 23:33N 37°58' E 023°37'0 0.0
2014-Jul-16 22:33N 37°58' E 023°37'0 0.0
2014-Jul-16 21:33N 37°58' E 023°37'0 0.0
2014-Jul-16 20:33N 37°58' E 023°37'0 0.0
2014-Jul-16 19:33N 37°58' E 023°37'0 0.0
2014-Jul-16 18:33N 37°58' E 023°37'0 0.0
2014-Jul-16 17:33N 37°58' E 023°37'0 0.0
2014-Jul-16 16:33N 37°58' E 023°37'0 0.0
2014-Jul-16 15:33N 37°58' E 023°37'0 0.0
2014-Jul-16 14:33N 37°58' E 023°37'0 0.0
2014-Jul-16 13:33N 37°58' E 023°37'0 0.0
2014-Jul-16 12:33N 37°58' E 023°37'0 0.0
2014-Jul-16 11:33N 37°58' E 023°37'0 0.0
2014-Jul-16 10:33N 37°58' E 023°37'1 1.4
2014-Jul-16 09:33N 37°56' E 023°38'0 0.0
2014-Jul-16 08:33N 37°56' E 023°38'0 0.0
2014-Jul-16 07:33N 37°56' E 023°38'0 0.0
2014-Jul-16 06:33N 37°56' E 023°38'1 1.4
2014-Jul-16 05:34N 37°58' E 023°37'0 0.1
2014-Jul-16 04:33N 37°58' E 023°37'0 0.0
2014-Jul-16 03:33N 37°58' E 023°37'0 0.0
2014-Jul-16 02:33N 37°58' E 023°37'0 0.0
2014-Jul-16 01:33N 37°58' E 023°37'0 0.0
2014-Jul-16 00:33N 37°58' E 023°37'0 0.0
2014-Jul-15 23:32N 37°58' E 023°37'0 0.0
2014-Jul-15 22:33N 37°58' E 023°37'0 0.0
2014-Jul-15 21:34N 37°58' E 023°37'0 0.0
2014-Jul-15 20:33N 37°58' E 023°37'0 0.0
2014-Jul-15 19:33N 37°58' E 023°37'0 0.0
2014-Jul-15 18:33N 37°58' E 023°37'0 0.0
2014-Jul-15 17:34N 37°58' E 023°37'0 0.0
2014-Jul-15 16:33N 37°58' E 023°37'0 0.0
2014-Jul-15 15:33N 37°58' E 023°37'0 0.0
2014-Jul-15 14:33N 37°58' E 023°37'0 0.0
2014-Jul-15 13:33N 37°58' E 023°37'0 0.0
2014-Jul-15 12:33N 37°58' E 023°37'1 0.6
2014-Jul-15 11:33N 37°57' E 023°36'6 6.1
2014-Jul-15 10:33N 38°02' E 023°31'0 0.2
2014-Jul-15 09:33N 38°02' E 023°31'0 0.0
2014-Jul-15 08:33N 38°02' E 023°31'0 0.0
2014-Jul-15 07:33N 38°02' E 023°31'0 0.0
2014-Jul-15 06:33N 38°02' E 023°31'0 0.0
2014-Jul-15 05:33N 38°02' E 023°31'1 0.8
2014-Jul-15 04:33N 38°01' E 023°31'1 1.1
2014-Jul-15 03:33N 38°01' E 023°32'4 3.9
2014-Jul-15 02:33N 37°57' E 023°35'2 1.7
2014-Jul-15 01:33N 37°58' E 023°37'0 0.0
2014-Jul-15 00:33N 37°58' E 023°37'0 0.0
2014-Jul-14 23:33N 37°58' E 023°37'0 0.0
2014-Jul-14 22:33N 37°58' E 023°37'0 0.0
2014-Jul-14 21:33N 37°58' E 023°37'0 0.0
2014-Jul-14 20:33N 37°58' E 023°37'0 0.0
2014-Jul-14 19:33N 37°58' E 023°37'0 0.0
2014-Jul-14 18:34N 37°58' E 023°37'  

Dump ship's entire track history